createdAt,value
2018-07-02T00:00:52.452Z,13.90
2018-07-02T00:03:20.650Z,13.90
2018-07-02T00:06:00.267Z,13.90
2018-07-02T00:08:28.455Z,13.90
2018-07-02T00:10:56.781Z,13.80
2018-07-02T00:13:25.061Z,13.80
2018-07-02T00:15:53.413Z,13.80
2018-07-02T00:18:21.631Z,13.80
2018-07-02T00:20:49.890Z,13.70
2018-07-02T00:23:18.101Z,13.70
2018-07-02T00:25:46.272Z,13.70
2018-07-02T00:28:14.593Z,13.60
2018-07-02T00:30:42.879Z,13.60
2018-07-02T00:33:11.101Z,13.60
2018-07-02T00:35:39.321Z,13.60
2018-07-02T00:38:07.653Z,13.50
2018-07-02T00:40:36.086Z,13.50
2018-07-02T00:43:04.310Z,13.50
2018-07-02T00:45:32.550Z,13.40
2018-07-02T00:48:00.919Z,13.40
2018-07-02T00:50:29.171Z,13.40
2018-07-02T00:52:58.185Z,13.30
2018-07-02T00:55:26.384Z,13.30
2018-07-02T00:57:54.578Z,13.30
2018-07-02T01:00:22.879Z,13.20
2018-07-02T01:02:51.153Z,13.20
2018-07-02T01:05:19.354Z,13.20
2018-07-02T01:07:47.553Z,13.20
2018-07-02T01:10:15.765Z,13.20
2018-07-02T01:12:43.968Z,13.20
2018-07-02T01:15:12.228Z,13.10
2018-07-02T01:17:40.416Z,13.10
2018-07-02T01:20:08.587Z,13.10
2018-07-02T01:22:36.793Z,13.10
2018-07-02T01:25:05.179Z,13.10
2018-07-02T01:27:34.648Z,13.00
2018-07-02T01:30:03.847Z,13.00
2018-07-02T01:32:32.036Z,13.00
2018-07-02T01:35:00.338Z,12.90
2018-07-02T01:37:28.745Z,12.90
2018-07-02T01:39:57.000Z,12.90
2018-07-02T01:42:25.210Z,12.90
2018-07-02T01:44:53.410Z,12.80
2018-07-02T01:47:21.651Z,12.80
2018-07-02T01:49:49.829Z,12.80
2018-07-02T01:52:18.136Z,12.70
2018-07-02T01:54:46.413Z,12.70
2018-07-02T01:57:14.688Z,12.60
2018-07-02T01:59:42.941Z,12.60
2018-07-02T02:02:11.159Z,12.60
2018-07-02T02:04:39.343Z,12.60
2018-07-02T02:07:07.544Z,12.60
2018-07-02T02:09:35.860Z,12.60
2018-07-02T02:12:04.338Z,12.60
2018-07-02T02:14:32.580Z,12.50
2018-07-02T02:17:00.818Z,12.50
2018-07-02T02:19:29.066Z,12.50
2018-07-02T02:21:57.246Z,12.40
2018-07-02T02:24:25.400Z,12.40
2018-07-02T02:26:53.552Z,12.40
2018-07-02T02:29:21.800Z,12.40
2018-07-02T02:31:49.964Z,12.40
2018-07-02T02:34:18.196Z,12.40
2018-07-02T02:36:46.361Z,12.40
2018-07-02T02:39:14.584Z,12.40
2018-07-02T02:41:42.808Z,12.30
2018-07-02T02:44:10.996Z,12.30
2018-07-02T02:46:39.192Z,12.30
2018-07-02T02:49:07.392Z,12.30
2018-07-02T02:51:35.640Z,12.40
2018-07-02T02:54:03.971Z,12.30
2018-07-02T02:56:32.224Z,12.30
2018-07-02T02:59:00.468Z,12.30
2018-07-02T03:01:28.943Z,12.30
2018-07-02T03:04:03.606Z,12.20
2018-07-02T03:06:31.903Z,12.10
2018-07-02T03:09:00.199Z,12.10
2018-07-02T03:11:28.415Z,12.10
2018-07-02T03:13:56.712Z,12.10
2018-07-02T03:16:24.978Z,12.20
2018-07-02T03:18:53.140Z,12.30
2018-07-02T03:21:21.452Z,12.40
2018-07-02T03:23:49.718Z,13.20
2018-07-02T03:26:18.111Z,14.40
2018-07-02T03:28:46.306Z,15.60
2018-07-02T03:31:14.519Z,16.40
2018-07-02T03:33:42.765Z,16.30
2018-07-02T03:36:11.009Z,16.80
2018-07-02T03:38:39.417Z,17.70
2018-07-02T03:41:07.729Z,18.50
2018-07-02T03:43:35.977Z,19.50
2018-07-02T03:46:04.337Z,20.50
2018-07-02T03:48:32.569Z,21.50
2018-07-02T03:51:00.798Z,22.50
2018-07-02T03:53:29.129Z,23.60
2018-07-02T03:55:57.471Z,24.50
2018-07-02T03:58:26.063Z,25.50
2018-07-02T04:00:54.633Z,26.40
2018-07-02T04:03:23.035Z,26.80
2018-07-02T04:05:51.295Z,27.30
2018-07-02T04:08:19.521Z,27.90
2018-07-02T04:10:47.733Z,28.70
2018-07-02T04:13:16.008Z,29.10
2018-07-02T04:15:44.337Z,29.30
2018-07-02T04:18:12.522Z,29.70
2018-07-02T04:20:40.807Z,30.00
2018-07-02T04:23:09.093Z,30.40
2018-07-02T04:25:37.349Z,30.80
2018-07-02T04:28:05.787Z,30.90
2018-07-02T04:30:34.190Z,31.00
2018-07-02T04:33:02.536Z,31.20
2018-07-02T04:35:31.044Z,31.40
2018-07-02T04:37:59.463Z,32.10
2018-07-02T04:40:27.717Z,32.60
2018-07-02T04:42:56.084Z,32.70
2018-07-02T04:45:24.357Z,33.30
2018-07-02T04:47:53.531Z,34.40
2018-07-02T04:50:21.065Z,34.90
2018-07-02T04:52:49.407Z,35.50
2018-07-02T04:55:18.460Z,35.70
2018-07-02T04:57:46.884Z,36.30
2018-07-02T05:00:15.582Z,37.00
2018-07-02T05:02:43.772Z,37.30
2018-07-02T05:05:12.113Z,37.50
2018-07-02T05:07:40.579Z,37.60
2018-07-02T05:10:09.087Z,38.00
2018-07-02T05:12:37.302Z,38.20
2018-07-02T05:15:05.528Z,39.00
2018-07-02T05:17:33.736Z,39.20
2018-07-02T05:20:02.134Z,38.70
2018-07-02T05:22:30.318Z,38.30
2018-07-02T05:24:58.554Z,38.20
2018-07-02T05:27:26.856Z,38.30
2018-07-02T05:29:55.112Z,39.10
2018-07-02T05:32:23.362Z,40.00
2018-07-02T05:34:51.855Z,40.90
2018-07-02T05:37:20.162Z,41.60
2018-07-02T05:39:48.697Z,41.70
2018-07-02T05:42:16.868Z,42.70
2018-07-02T05:44:45.085Z,43.80
2018-07-02T05:47:13.325Z,43.20
2018-07-02T05:49:41.565Z,43.20
2018-07-02T05:52:09.776Z,43.20
2018-07-02T05:54:38.072Z,43.30
2018-07-02T05:57:06.522Z,43.10
2018-07-02T05:59:34.934Z,43.00
2018-07-02T06:02:03.157Z,42.80
2018-07-02T06:04:31.463Z,42.60
2018-07-02T06:06:59.730Z,42.00
2018-07-02T06:09:27.988Z,42.00
2018-07-02T06:11:56.195Z,42.80
2018-07-02T06:14:25.764Z,44.10
2018-07-02T06:16:53.953Z,43.40
2018-07-02T06:19:22.150Z,43.70
2018-07-02T06:21:50.409Z,43.40
2018-07-02T06:24:18.768Z,43.80
2018-07-02T06:26:47.235Z,44.10
2018-07-02T06:29:16.331Z,44.60
2018-07-02T06:31:44.598Z,43.80
2018-07-02T06:34:13.104Z,44.80
2018-07-02T06:36:41.348Z,44.90
2018-07-02T06:39:10.380Z,44.70
2018-07-02T06:41:38.687Z,44.40
2018-07-02T06:44:07.094Z,44.90
2018-07-02T06:46:35.604Z,45.40
2018-07-02T06:49:03.967Z,46.70
2018-07-02T06:51:32.226Z,47.70
2018-07-02T06:54:00.604Z,48.50
2018-07-02T06:56:28.915Z,47.00
2018-07-02T06:58:57.131Z,47.20
2018-07-02T07:01:25.386Z,48.00
2018-07-02T07:03:53.586Z,48.90
2018-07-02T07:06:22.530Z,48.50
2018-07-02T07:08:51.019Z,48.40
2018-07-02T07:11:19.263Z,48.50
2018-07-02T07:13:47.799Z,48.70
2018-07-02T07:16:16.601Z,47.50
2018-07-02T07:18:44.925Z,47.10
2018-07-02T07:21:13.416Z,46.80
2018-07-02T07:23:42.023Z,46.30
2018-07-02T07:26:10.646Z,45.70
2018-07-02T07:28:39.206Z,45.70
2018-07-02T07:31:07.564Z,45.10
2018-07-02T07:33:36.688Z,45.60
2018-07-02T07:36:05.229Z,44.90
2018-07-02T07:38:33.470Z,44.60
2018-07-02T07:41:02.019Z,42.30
2018-07-02T07:43:30.399Z,41.30
2018-07-02T07:45:58.791Z,41.00
2018-07-02T07:48:27.119Z,39.70
2018-07-02T07:50:55.428Z,39.30
2018-07-02T07:53:23.847Z,38.70
2018-07-02T07:55:52.499Z,37.70
2018-07-02T07:58:20.897Z,37.00
2018-07-02T08:00:49.298Z,35.70
2018-07-02T08:03:18.225Z,35.80
2018-07-02T08:05:46.762Z,35.60
2018-07-02T08:08:16.100Z,35.10
2018-07-02T08:10:44.479Z,35.10
2018-07-02T08:13:12.878Z,35.10
2018-07-02T08:15:42.021Z,34.40
2018-07-02T08:18:10.337Z,34.40
2018-07-02T08:20:38.630Z,34.10
2018-07-02T08:23:07.143Z,33.70
2018-07-02T08:25:35.639Z,34.00
2018-07-02T08:28:04.828Z,33.80
2018-07-02T08:30:33.196Z,33.70
2018-07-02T08:33:02.140Z,33.10
2018-07-02T08:35:30.338Z,32.60
2018-07-02T08:37:58.560Z,32.40
2018-07-02T08:40:26.952Z,32.20
2018-07-02T08:42:55.390Z,31.80
2018-07-02T08:45:23.816Z,31.30
2018-07-02T08:47:52.183Z,30.50
2018-07-02T08:50:20.662Z,30.00
2018-07-02T08:52:49.095Z,29.30
2018-07-02T08:55:17.426Z,28.70
2018-07-02T08:57:47.862Z,28.00
2018-07-02T09:00:16.208Z,27.20
2018-07-02T09:02:44.738Z,26.60
2018-07-02T09:05:13.120Z,26.30
2018-07-02T09:07:41.486Z,26.30
2018-07-02T09:10:09.741Z,26.00
2018-07-02T09:12:37.887Z,25.80
2018-07-02T09:15:06.096Z,25.70
2018-07-02T09:17:34.480Z,25.20
2018-07-02T09:20:02.743Z,24.60
2018-07-02T09:22:30.942Z,24.30
2018-07-02T09:24:59.139Z,24.30
2018-07-02T09:27:27.386Z,24.50
2018-07-02T09:29:55.908Z,24.60
2018-07-02T09:32:24.189Z,24.60
2018-07-02T09:34:52.357Z,24.50
2018-07-02T09:37:20.541Z,24.60
2018-07-02T09:39:48.809Z,24.90
2018-07-02T09:42:17.140Z,25.30
2018-07-02T09:44:45.530Z,25.40
2018-07-02T09:47:14.056Z,25.10
2018-07-02T09:49:42.416Z,25.40
2018-07-02T09:52:10.649Z,25.40
2018-07-02T09:54:39.457Z,25.80
2018-07-02T09:57:07.759Z,26.40
2018-07-02T09:59:36.114Z,26.50
2018-07-02T10:02:04.365Z,26.50
2018-07-02T10:04:32.825Z,26.40
2018-07-02T10:07:01.204Z,26.50
2018-07-02T10:09:29.482Z,26.90
2018-07-02T10:11:57.772Z,27.30
2018-07-02T10:14:26.076Z,27.70
2018-07-02T10:16:54.342Z,28.30
2018-07-02T10:19:23.701Z,28.90
2018-07-02T10:21:52.043Z,29.40
2018-07-02T10:24:20.300Z,29.40
2018-07-02T10:26:48.540Z,29.40
2018-07-02T10:29:16.788Z,29.50
2018-07-02T10:31:44.940Z,29.90
2018-07-02T10:34:13.113Z,30.30
2018-07-02T10:36:41.358Z,30.40
2018-07-02T10:39:09.530Z,29.90
2018-07-02T10:41:38.300Z,29.40
2018-07-02T10:44:06.988Z,29.00
2018-07-02T10:46:35.214Z,28.20
2018-07-02T10:49:03.474Z,27.70
2018-07-02T10:51:31.737Z,27.00
2018-07-02T10:54:00.117Z,26.70
2018-07-02T10:56:28.361Z,26.70
2018-07-02T10:58:56.780Z,26.70
2018-07-02T11:01:25.019Z,26.40
2018-07-02T11:03:53.357Z,26.60
2018-07-02T11:06:21.782Z,27.10
2018-07-02T11:08:50.153Z,27.20
2018-07-02T11:11:18.685Z,26.80
2018-07-02T11:13:46.844Z,26.70
2018-07-02T11:16:15.213Z,26.70
2018-07-02T11:18:45.203Z,27.00
2018-07-02T11:21:13.669Z,27.10
2018-07-02T11:23:42.242Z,27.00
2018-07-02T11:26:10.488Z,26.70
2018-07-02T11:28:38.850Z,26.50
2018-07-02T11:31:07.148Z,26.50
2018-07-02T11:33:35.433Z,26.60
2018-07-02T11:36:03.799Z,26.80
2018-07-02T11:38:32.254Z,27.10
2018-07-02T11:41:00.625Z,27.30
2018-07-02T11:43:28.902Z,27.50
2018-07-02T11:45:57.276Z,27.40
2018-07-02T11:48:25.678Z,27.60
2018-07-02T11:50:54.197Z,27.90
2018-07-02T11:53:22.699Z,27.90
2018-07-02T11:55:50.905Z,27.50
2018-07-02T11:58:19.179Z,27.00
2018-07-02T12:00:47.464Z,27.00
2018-07-02T12:03:15.712Z,27.30
2018-07-02T12:05:43.947Z,27.50
2018-07-02T12:08:12.204Z,27.70
2018-07-02T12:10:41.564Z,27.70
2018-07-02T12:13:09.930Z,27.60
2018-07-02T12:15:38.328Z,27.60
2018-07-02T12:18:06.729Z,27.80
2018-07-02T12:20:34.958Z,28.10
2018-07-02T12:23:04.098Z,28.30
2018-07-02T12:25:32.345Z,28.50
2018-07-02T12:28:00.658Z,27.80
2018-07-02T12:30:28.946Z,27.70
2018-07-02T12:32:57.262Z,27.70
2018-07-02T12:35:25.467Z,27.70
2018-07-02T12:37:53.987Z,27.40
2018-07-02T12:40:22.416Z,27.30
2018-07-02T12:42:50.670Z,27.30
2018-07-02T12:45:22.938Z,27.30
2018-07-02T12:47:52.646Z,27.30
2018-07-02T12:50:21.089Z,27.20
2018-07-02T12:52:49.418Z,27.00
2018-07-02T12:55:18.006Z,26.80
2018-07-02T12:57:46.947Z,26.70
2018-07-02T13:00:15.139Z,26.60
2018-07-02T13:02:43.434Z,26.60
2018-07-02T13:05:11.690Z,26.40
2018-07-02T13:07:39.942Z,26.10
2018-07-02T13:10:08.530Z,25.90
2018-07-02T13:12:36.824Z,25.60
2018-07-02T13:15:05.385Z,25.50
2018-07-02T13:17:33.646Z,25.30
2018-07-02T13:20:01.978Z,25.20
2018-07-02T13:22:30.368Z,25.10
2018-07-02T13:24:58.704Z,24.90
2018-07-02T13:27:27.032Z,24.80
2018-07-02T13:29:56.015Z,24.80
2018-07-02T13:32:24.287Z,24.80
2018-07-02T13:34:53.454Z,24.80
2018-07-02T13:37:21.763Z,25.00
2018-07-02T13:39:50.005Z,25.40
2018-07-02T13:42:18.414Z,26.00
2018-07-02T13:44:46.792Z,26.70
2018-07-02T13:47:15.065Z,27.40
2018-07-02T13:49:43.660Z,27.80
2018-07-02T13:52:12.184Z,28.20
2018-07-02T13:54:40.548Z,28.60
2018-07-02T13:57:08.913Z,28.90
2018-07-02T13:59:37.096Z,29.00
2018-07-02T14:02:05.749Z,28.80
2018-07-02T14:04:34.004Z,28.70
2018-07-02T14:07:02.754Z,28.50
2018-07-02T14:09:31.086Z,28.30
2018-07-02T14:11:59.630Z,28.00
2018-07-02T14:14:27.964Z,27.60
2018-07-02T14:16:57.165Z,27.10
2018-07-02T14:19:25.640Z,26.70
2018-07-02T14:21:54.105Z,26.20
2018-07-02T14:24:22.442Z,25.80
2018-07-02T14:26:50.912Z,25.50
2018-07-02T14:29:19.334Z,25.20
2018-07-02T14:31:47.820Z,25.10
2018-07-02T14:34:16.173Z,25.00
2018-07-02T14:36:44.723Z,24.80
2018-07-02T14:39:13.618Z,24.60
2018-07-02T14:41:41.951Z,24.60
2018-07-02T14:44:10.190Z,24.60
2018-07-02T14:46:38.546Z,24.60
2018-07-02T14:49:06.830Z,24.70
2018-07-02T14:51:35.236Z,24.70
2018-07-02T14:54:03.829Z,24.70
2018-07-02T14:56:32.460Z,24.70
2018-07-02T14:59:00.775Z,24.70
2018-07-02T15:01:29.051Z,24.80
2018-07-02T15:03:57.371Z,24.90
2018-07-02T15:06:25.622Z,24.90
2018-07-02T15:08:53.937Z,24.80
2018-07-02T15:11:22.280Z,24.80
2018-07-02T15:13:50.584Z,24.50
2018-07-02T15:16:18.874Z,24.40
2018-07-02T15:18:47.193Z,24.30
2018-07-02T15:21:15.716Z,24.20
2018-07-02T15:23:44.279Z,24.10
2018-07-02T15:26:13.817Z,24.00
2018-07-02T15:28:42.229Z,23.90
2018-07-02T15:31:10.751Z,23.90
2018-07-02T15:33:39.110Z,23.80
2018-07-02T15:36:07.460Z,23.70
2018-07-02T15:38:35.737Z,23.70
2018-07-02T15:41:04.110Z,23.60
2018-07-02T15:43:32.463Z,23.50
2018-07-02T15:46:00.785Z,23.50
2018-07-02T15:48:29.401Z,23.50
2018-07-02T15:50:57.909Z,23.40
2018-07-02T15:53:26.206Z,23.40
2018-07-02T15:55:54.676Z,23.40
2018-07-02T15:58:23.506Z,23.50
2018-07-02T16:00:51.732Z,23.60
2018-07-02T16:03:20.226Z,23.70
2018-07-02T16:05:48.739Z,23.70
2018-07-02T16:08:17.041Z,23.80
2018-07-02T16:10:45.799Z,23.80
2018-07-02T16:13:14.110Z,23.80
2018-07-02T16:15:42.357Z,23.80
2018-07-02T16:18:10.583Z,23.80
2018-07-02T16:20:38.837Z,23.80
2018-07-02T16:23:08.169Z,23.70
2018-07-02T16:25:36.636Z,23.60
2018-07-02T16:28:05.251Z,23.50
2018-07-02T16:30:33.789Z,23.50
2018-07-02T16:33:02.561Z,23.70
2018-07-02T16:35:31.224Z,24.00
2018-07-02T16:37:59.524Z,24.10
2018-07-02T16:40:27.837Z,24.30
2018-07-02T16:42:56.262Z,24.50
2018-07-02T16:45:24.530Z,24.80
2018-07-02T16:47:52.987Z,25.00
2018-07-02T16:50:21.281Z,25.20
2018-07-02T16:52:49.686Z,25.20
2018-07-02T16:55:18.044Z,25.40
2018-07-02T16:57:46.776Z,25.50
2018-07-02T17:00:15.764Z,25.40
2018-07-02T17:02:44.174Z,25.40
2018-07-02T17:05:12.579Z,25.60
2018-07-02T17:07:41.547Z,25.50
2018-07-02T17:10:09.949Z,25.50
2018-07-02T17:12:38.280Z,25.40
2018-07-02T17:15:06.700Z,25.40
2018-07-02T17:17:35.104Z,25.40
2018-07-02T17:20:03.692Z,25.50
2018-07-02T17:22:32.044Z,25.60
2018-07-02T17:25:00.474Z,25.60
2018-07-02T17:27:29.166Z,25.60
2018-07-02T17:29:57.546Z,25.60
2018-07-02T17:32:26.057Z,25.60
2018-07-02T17:34:54.376Z,25.50
2018-07-02T17:37:22.742Z,25.40
2018-07-02T17:39:53.038Z,25.40
2018-07-02T17:42:21.456Z,25.30
2018-07-02T17:44:51.434Z,25.20
2018-07-02T17:47:19.748Z,25.20
2018-07-02T17:49:48.128Z,25.10
2018-07-02T17:52:16.420Z,24.90
2018-07-02T17:54:44.713Z,24.70
2018-07-02T17:57:13.029Z,24.50
2018-07-02T17:59:41.498Z,24.30
2018-07-02T18:02:10.021Z,24.10
2018-07-02T18:04:38.495Z,24.00
2018-07-02T18:07:06.763Z,23.80
2018-07-02T18:09:35.338Z,23.60
2018-07-02T18:12:03.646Z,23.50
2018-07-02T18:14:31.927Z,23.30
2018-07-02T18:17:00.267Z,23.20
2018-07-02T18:19:28.689Z,23.10
2018-07-02T18:21:58.138Z,23.00
2018-07-02T18:24:26.601Z,22.80
2018-07-02T18:26:54.873Z,22.70
2018-07-02T18:29:23.139Z,22.60
2018-07-02T18:31:51.595Z,22.50
2018-07-02T18:34:19.923Z,22.40
2018-07-02T18:36:48.403Z,22.30
2018-07-02T18:39:16.867Z,22.20
2018-07-02T18:41:45.393Z,22.10
2018-07-02T18:44:13.998Z,22.00
2018-07-02T18:46:42.316Z,21.90
2018-07-02T18:49:10.850Z,21.90
2018-07-02T18:51:39.482Z,21.80
2018-07-02T18:54:07.799Z,21.70
2018-07-02T18:56:36.080Z,21.70
2018-07-02T18:59:04.570Z,21.60
2018-07-02T19:01:32.856Z,21.60
2018-07-02T19:04:01.072Z,21.50
2018-07-02T19:06:29.349Z,21.40
2018-07-02T19:08:57.763Z,21.30
2018-07-02T19:11:26.091Z,21.20
2018-07-02T19:13:54.359Z,21.20
2018-07-02T19:16:22.744Z,21.00
2018-07-02T19:18:50.912Z,21.00
2018-07-02T19:21:19.314Z,20.90
2018-07-02T19:23:47.713Z,20.90
2018-07-02T19:26:16.041Z,20.90
2018-07-02T19:28:44.485Z,20.80
2018-07-02T19:31:12.801Z,20.70
2018-07-02T19:33:41.215Z,20.60
2018-07-02T19:36:09.622Z,20.60
2018-07-02T19:38:38.214Z,20.50
2018-07-02T19:41:06.872Z,20.40
2018-07-02T19:43:35.351Z,20.30
2018-07-02T19:46:03.985Z,20.20
2018-07-02T19:48:32.326Z,20.10
2018-07-02T19:51:01.229Z,20.10
2018-07-02T19:53:29.646Z,20.00
2018-07-02T19:55:58.845Z,19.90
2018-07-02T19:58:27.496Z,19.90
2018-07-02T20:00:56.187Z,19.80
2018-07-02T20:03:24.563Z,19.70
2018-07-02T20:05:52.903Z,19.70
2018-07-02T20:08:21.191Z,19.60
2018-07-02T20:10:49.502Z,19.60
2018-07-02T20:13:17.827Z,19.50
2018-07-02T20:15:46.232Z,19.50
2018-07-02T20:18:14.591Z,19.40
2018-07-02T20:20:42.926Z,19.40
2018-07-02T20:23:11.481Z,19.40
2018-07-02T20:25:40.149Z,19.30
2018-07-02T20:28:08.700Z,19.30
2018-07-02T20:30:38.040Z,19.20
2018-07-02T20:33:06.402Z,19.20
2018-07-02T20:35:34.749Z,19.20
2018-07-02T20:38:03.971Z,19.10
2018-07-02T20:40:32.280Z,19.10
2018-07-02T20:43:00.588Z,19.00
2018-07-02T20:45:28.858Z,19.00
2018-07-02T20:47:57.129Z,18.90
2018-07-02T20:50:25.399Z,18.90
2018-07-02T20:52:54.185Z,18.80
2018-07-02T20:55:22.468Z,18.80
2018-07-02T20:57:50.878Z,18.70
2018-07-02T21:00:19.278Z,18.70
2018-07-02T21:02:47.670Z,18.70
2018-07-02T21:05:16.036Z,18.60
2018-07-02T21:07:44.624Z,18.60
2018-07-02T21:10:13.357Z,18.50
2018-07-02T21:12:48.038Z,18.50
2018-07-02T21:15:16.772Z,18.50
2018-07-02T21:17:45.375Z,18.40
2018-07-02T21:20:13.945Z,18.40
2018-07-02T21:22:42.516Z,18.30
2018-07-02T21:25:11.087Z,18.30
2018-07-02T21:27:39.475Z,18.30
2018-07-02T21:30:08.463Z,18.20
2018-07-02T21:32:37.404Z,18.20
2018-07-02T21:35:06.533Z,18.10
2018-07-02T21:37:34.953Z,18.10
2018-07-02T21:40:03.303Z,18.10
2018-07-02T21:42:31.765Z,18.00
2018-07-02T21:45:00.267Z,18.00
2018-07-02T21:47:28.597Z,18.00
2018-07-02T21:49:56.906Z,17.90
2018-07-02T21:52:25.309Z,17.90
2018-07-02T21:54:54.177Z,17.90
2018-07-02T21:57:22.690Z,17.80
2018-07-02T21:59:51.044Z,17.70
2018-07-02T22:02:19.317Z,17.70
2018-07-02T22:04:48.221Z,17.70
2018-07-02T22:07:16.579Z,17.60
2018-07-02T22:09:45.628Z,17.60
2018-07-02T22:12:13.858Z,17.60
2018-07-02T22:14:43.262Z,17.60
2018-07-02T22:17:11.432Z,17.60
2018-07-02T22:19:39.654Z,17.70
2018-07-02T22:22:07.926Z,17.80
2018-07-02T22:24:36.901Z,17.80
2018-07-02T22:27:05.243Z,17.80
2018-07-02T22:29:33.406Z,17.80
2018-07-02T22:32:01.723Z,17.70
2018-07-02T22:34:29.923Z,17.60
2018-07-02T22:36:58.676Z,17.60
2018-07-02T22:39:26.849Z,17.50
2018-07-02T22:41:55.142Z,17.40
2018-07-02T22:44:23.500Z,17.40
2018-07-02T22:46:51.851Z,17.40
2018-07-02T22:49:20.164Z,17.30
2018-07-02T22:51:48.372Z,17.20
2018-07-02T22:54:16.714Z,17.20
2018-07-02T22:56:44.940Z,17.20
2018-07-02T22:59:13.133Z,17.10
2018-07-02T23:01:41.415Z,17.10
2018-07-02T23:04:09.596Z,17.00
2018-07-02T23:06:37.809Z,17.00
2018-07-02T23:09:08.098Z,17.00
2018-07-02T23:11:36.322Z,17.00
2018-07-02T23:14:04.666Z,16.90
2018-07-02T23:16:32.930Z,16.90
2018-07-02T23:19:01.234Z,16.90
2018-07-02T23:21:29.504Z,16.80
2018-07-02T23:23:57.753Z,16.80
2018-07-02T23:26:26.053Z,16.80
2018-07-02T23:28:54.312Z,16.70
2018-07-02T23:31:28.813Z,16.70
2018-07-02T23:33:56.976Z,16.70
2018-07-02T23:36:25.205Z,16.60
2018-07-02T23:38:53.466Z,16.60
2018-07-02T23:41:22.133Z,16.50
2018-07-02T23:43:50.495Z,16.50
2018-07-02T23:46:18.697Z,16.50
2018-07-02T23:48:47.089Z,16.50
2018-07-02T23:51:15.328Z,16.40
2018-07-02T23:53:43.582Z,16.40
2018-07-02T23:56:11.915Z,16.40
2018-07-02T23:58:40.163Z,16.40
